WRC1011 UKBB-UKLL
Flight info
| Callsign | WRC1011 |
|---|---|
| Flight time | 0h 51m |
| Altitude | 30000 |
| Route | N0450F300 KAFEL P27 PEPIL N983 ADBAN |
| Aircraft | A321/M-VGDW/C |
Departure
| Time | 2026-05-07 11:13 |
|---|---|
| Airport | Boryspil International Airport (UKBB) |
Arrival
| Time | 2026-05-07 12:05 |
|---|---|
| Airport | Lviv International Airport (UKLL) |
| Time | Latitude | Longitude | Altitude | Speed | Heading |
|---|---|---|---|---|---|
| 2026-05-07 10:55 | 50.35221 | 30.89888 | 426 ft | 0 kts | 274° |
| 2026-05-07 11:07 | 50.35220 | 30.89908 | 426 ft | 2 kts | 273° |
| 2026-05-07 11:07 | 50.35219 | 30.89931 | 426 ft | 2 kts | 274° |
| 2026-05-07 11:08 | 50.35218 | 30.89955 | 426 ft | 2 kts | 274° |
| 2026-05-07 11:08 | 50.35217 | 30.89978 | 426 ft | 2 kts | 274° |
| 2026-05-07 11:08 | 50.35215 | 30.90001 | 426 ft | 2 kts | 306° |
| 2026-05-07 11:08 | 50.35203 | 30.90014 | 426 ft | 2 kts | 351° |
| 2026-05-07 11:09 | 50.35196 | 30.90014 | 426 ft | 1 kts | 7° |
| 2026-05-07 11:09 | 50.35193 | 30.90014 | 426 ft | 0 kts | 3° |
| 2026-05-07 11:10 | 50.35215 | 30.90016 | 426 ft | 11 kts | 3° |
| 2026-05-07 11:10 | 50.35300 | 30.90023 | 426 ft | 12 kts | 3° |
| 2026-05-07 11:11 | 50.35393 | 30.90038 | 426 ft | 13 kts | 28° |
| 2026-05-07 11:11 | 50.35443 | 30.90162 | 426 ft | 14 kts | 88° |
| 2026-05-07 11:11 | 50.35497 | 30.90273 | 426 ft | 13 kts | 9° |
| 2026-05-07 11:11 | 50.35594 | 30.90286 | 426 ft | 14 kts | 2° |
| 2026-05-07 11:12 | 50.35695 | 30.90291 | 426 ft | 15 kts | 2° |
| 2026-05-07 11:12 | 50.35833 | 30.90298 | 426 ft | 24 kts | 1° |
| 2026-05-07 11:12 | 50.35999 | 30.90318 | 426 ft | 23 kts | 15° |
| 2026-05-07 11:12 | 50.36071 | 30.90519 | 426 ft | 28 kts | 111° |
| 2026-05-07 11:13 | 50.35760 | 30.90625 | 426 ft | 85 kts | 183° |
| 2026-05-07 11:13 | 50.34875 | 30.90560 | 431 ft | 165 kts | 184° |
| 2026-05-07 11:13 | 50.33718 | 30.90459 | 1309 ft | 168 kts | 186° |
| 2026-05-07 11:13 | 50.32604 | 30.90298 | 2349 ft | 167 kts | 187° |
| 2026-05-07 11:14 | 50.31437 | 30.90123 | 3125 ft | 172 kts | 188° |
| 2026-05-07 11:14 | 50.30202 | 30.89942 | 3541 ft | 188 kts | 187° |
| 2026-05-07 11:14 | 50.28848 | 30.89755 | 3910 ft | 207 kts | 187° |
| 2026-05-07 11:14 | 50.27334 | 30.89555 | 4289 ft | 229 kts | 186° |
| 2026-05-07 11:15 | 50.25687 | 30.89345 | 4755 ft | 247 kts | 186° |
| 2026-05-07 11:15 | 50.23956 | 30.89129 | 5393 ft | 257 kts | 186° |
| 2026-05-07 11:15 | 50.22168 | 30.88907 | 6222 ft | 259 kts | 186° |
| 2026-05-07 11:15 | 50.20385 | 30.88686 | 7011 ft | 262 kts | 185° |
| 2026-05-07 11:16 | 50.18568 | 30.88466 | 7761 ft | 266 kts | 183° |
| 2026-05-07 11:16 | 50.16727 | 30.88818 | 8470 ft | 273 kts | 162° |
| 2026-05-07 11:16 | 50.15080 | 30.90272 | 9186 ft | 280 kts | 141° |
| 2026-05-07 11:16 | 50.13880 | 30.92667 | 9889 ft | 289 kts | 118° |
| 2026-05-07 11:17 | 50.13353 | 30.95723 | 10495 ft | 301 kts | 95° |
| 2026-05-07 11:17 | 50.13689 | 30.99020 | 10802 ft | 323 kts | 69° |
| 2026-05-07 11:17 | 50.15021 | 31.01957 | 11087 ft | 343 kts | 41° |
| 2026-05-07 11:17 | 50.17136 | 31.03718 | 11361 ft | 359 kts | 14° |
| 2026-05-07 11:18 | 50.19669 | 31.03868 | 11628 ft | 372 kts | 348° |
| 2026-05-07 11:18 | 50.22124 | 31.02579 | 12087 ft | 378 kts | 335° |
| 2026-05-07 11:18 | 50.24506 | 31.00860 | 12713 ft | 381 kts | 333° |
| 2026-05-07 11:18 | 50.26929 | 30.99121 | 13330 ft | 385 kts | 334° |
| 2026-05-07 11:19 | 50.29396 | 30.97452 | 13932 ft | 388 kts | 335° |
| 2026-05-07 11:19 | 50.31881 | 30.95846 | 14524 ft | 391 kts | 336° |
| 2026-05-07 11:19 | 50.34329 | 30.94305 | 15090 ft | 394 kts | 336° |
| 2026-05-07 11:19 | 50.36948 | 30.92674 | 15678 ft | 396 kts | 336° |
| 2026-05-07 11:20 | 50.39507 | 30.91081 | 16234 ft | 399 kts | 336° |
| 2026-05-07 11:20 | 50.41920 | 30.88961 | 16724 ft | 399 kts | 318° |
| 2026-05-07 11:20 | 50.43698 | 30.85697 | 17237 ft | 396 kts | 297° |
| 2026-05-07 11:20 | 50.44663 | 30.81735 | 17768 ft | 394 kts | 283° |
| 2026-05-07 11:21 | 50.45298 | 30.77525 | 18282 ft | 396 kts | 281° |
| 2026-05-07 11:21 | 50.45896 | 30.73354 | 18742 ft | 399 kts | 281° |
| 2026-05-07 11:21 | 50.46522 | 30.69067 | 19214 ft | 402 kts | 282° |
| 2026-05-07 11:21 | 50.47162 | 30.64775 | 19677 ft | 404 kts | 282° |
| 2026-05-07 11:22 | 50.47802 | 30.60520 | 20130 ft | 407 kts | 282° |
| 2026-05-07 11:22 | 50.48458 | 30.56174 | 20581 ft | 409 kts | 282° |
| 2026-05-07 11:22 | 50.49113 | 30.51828 | 21005 ft | 412 kts | 282° |
| 2026-05-07 11:22 | 50.49643 | 30.47430 | 21404 ft | 413 kts | 273° |
| 2026-05-07 11:23 | 50.49466 | 30.42932 | 21804 ft | 413 kts | 257° |
| 2026-05-07 11:23 | 50.48493 | 30.38694 | 22198 ft | 415 kts | 242° |
| 2026-05-07 11:23 | 50.47032 | 30.34784 | 22617 ft | 416 kts | 238° |
| 2026-05-07 11:23 | 50.45776 | 30.30688 | 22963 ft | 420 kts | 251° |
| 2026-05-07 11:24 | 50.45190 | 30.26227 | 23322 ft | 423 kts | 265° |
| 2026-05-07 11:24 | 50.45318 | 30.21620 | 23689 ft | 427 kts | 278° |
| 2026-05-07 11:24 | 50.46075 | 30.17061 | 24073 ft | 430 kts | 286° |
| 2026-05-07 11:24 | 50.46991 | 30.12628 | 24437 ft | 432 kts | 287° |
| 2026-05-07 11:25 | 50.47893 | 30.08113 | 24788 ft | 434 kts | 286° |
| 2026-05-07 11:25 | 50.48735 | 30.03589 | 25126 ft | 436 kts | 285° |
| 2026-05-07 11:25 | 50.49546 | 29.98955 | 25474 ft | 438 kts | 284° |
| 2026-05-07 11:25 | 50.50322 | 29.94343 | 25820 ft | 439 kts | 284° |
| 2026-05-07 11:26 | 50.51076 | 29.89740 | 26149 ft | 441 kts | 284° |
| 2026-05-07 11:26 | 50.51831 | 29.85059 | 26467 ft | 443 kts | 284° |
| 2026-05-07 11:26 | 50.52581 | 29.80360 | 26787 ft | 444 kts | 284° |
| 2026-05-07 11:26 | 50.53325 | 29.75678 | 27200 ft | 443 kts | 284° |
| 2026-05-07 11:27 | 50.54068 | 29.70970 | 27650 ft | 441 kts | 284° |
| 2026-05-07 11:27 | 50.54803 | 29.66301 | 28079 ft | 440 kts | 284° |
| 2026-05-07 11:27 | 50.55533 | 29.61651 | 28481 ft | 439 kts | 284° |
| 2026-05-07 11:27 | 50.56259 | 29.57013 | 28807 ft | 440 kts | 284° |
| 2026-05-07 11:28 | 50.56989 | 29.52331 | 29106 ft | 441 kts | 284° |
| 2026-05-07 11:28 | 50.57716 | 29.47654 | 29414 ft | 442 kts | 284° |
| 2026-05-07 11:28 | 50.58438 | 29.42992 | 29711 ft | 443 kts | 284° |
| 2026-05-07 11:28 | 50.59166 | 29.38285 | 29942 ft | 444 kts | 284° |
| 2026-05-07 11:29 | 50.59702 | 29.28526 | 29963 ft | 452 kts | 266° |
| 2026-05-07 11:29 | 50.58363 | 29.18767 | 29967 ft | 467 kts | 251° |
| 2026-05-07 11:30 | 50.55967 | 29.09234 | 29966 ft | 471 kts | 249° |
| 2026-05-07 11:30 | 50.53502 | 28.99712 | 29965 ft | 471 kts | 249° |
| 2026-05-07 11:31 | 50.51060 | 28.90225 | 29968 ft | 471 kts | 249° |
| 2026-05-07 11:31 | 50.48610 | 28.80712 | 29976 ft | 470 kts | 249° |
| 2026-05-07 11:32 | 50.45256 | 28.66286 | 29987 ft | 470 kts | 254° |
| 2026-05-07 11:33 | 50.43485 | 28.56444 | 29990 ft | 470 kts | 255° |
| 2026-05-07 11:33 | 50.41719 | 28.46617 | 29991 ft | 470 kts | 255° |
| 2026-05-07 11:34 | 50.39914 | 28.36754 | 29991 ft | 471 kts | 255° |
| 2026-05-07 11:34 | 50.38761 | 28.26654 | 29991 ft | 470 kts | 264° |
| 2026-05-07 11:35 | 50.38107 | 28.16465 | 29993 ft | 470 kts | 264° |
| 2026-05-07 11:35 | 50.37425 | 28.06342 | 29994 ft | 470 kts | 264° |
| 2026-05-07 11:36 | 50.36697 | 27.96158 | 29992 ft | 470 kts | 263° |
| 2026-05-07 11:36 | 50.35943 | 27.85940 | 29984 ft | 469 kts | 263° |
| 2026-05-07 11:37 | 50.35178 | 27.75855 | 29988 ft | 468 kts | 263° |
| 2026-05-07 11:37 | 50.34405 | 27.65774 | 29995 ft | 467 kts | 263° |
| 2026-05-07 11:38 | 50.33625 | 27.55689 | 29998 ft | 467 kts | 263° |
| 2026-05-07 11:38 | 50.32838 | 27.45618 | 29999 ft | 466 kts | 263° |
| 2026-05-07 11:39 | 50.32045 | 27.35590 | 29999 ft | 466 kts | 263° |
| 2026-05-07 11:39 | 50.31242 | 27.25540 | 29999 ft | 465 kts | 262° |
| 2026-05-07 11:40 | 50.30432 | 27.15507 | 29998 ft | 464 kts | 262° |
| 2026-05-07 11:40 | 50.29617 | 27.05540 | 29999 ft | 464 kts | 262° |
| 2026-05-07 11:41 | 50.28788 | 26.95497 | 29998 ft | 464 kts | 262° |
| 2026-05-07 11:41 | 50.27961 | 26.85585 | 29999 ft | 463 kts | 262° |
| 2026-05-07 11:42 | 50.27118 | 26.75589 | 29998 ft | 463 kts | 262° |
| 2026-05-07 11:42 | 50.26273 | 26.65678 | 29999 ft | 463 kts | 262° |
| 2026-05-07 11:43 | 50.25417 | 26.55735 | 29999 ft | 463 kts | 262° |
| 2026-05-07 11:43 | 50.24547 | 26.45737 | 29999 ft | 463 kts | 261° |
| 2026-05-07 11:44 | 50.23677 | 26.35840 | 29999 ft | 463 kts | 261° |
| 2026-05-07 11:44 | 50.22792 | 26.25871 | 29999 ft | 463 kts | 261° |
| 2026-05-07 11:45 | 50.21899 | 26.15910 | 29998 ft | 463 kts | 261° |
| 2026-05-07 11:45 | 50.21017 | 26.06163 | 29995 ft | 443 kts | 261° |
| 2026-05-07 11:45 | 50.20586 | 26.01422 | 29884 ft | 441 kts | 261° |
| 2026-05-07 11:46 | 50.20154 | 25.96714 | 29634 ft | 438 kts | 261° |
| 2026-05-07 11:46 | 50.19720 | 25.92004 | 29336 ft | 436 kts | 261° |
| 2026-05-07 11:46 | 50.19284 | 25.87291 | 28767 ft | 434 kts | 261° |
| 2026-05-07 11:46 | 50.18852 | 25.82661 | 27963 ft | 435 kts | 261° |
| 2026-05-07 11:47 | 50.18414 | 25.77974 | 27255 ft | 432 kts | 261° |
| 2026-05-07 11:47 | 50.17984 | 25.73381 | 26767 ft | 432 kts | 261° |
| 2026-05-07 11:47 | 50.17551 | 25.68787 | 26232 ft | 430 kts | 261° |
| 2026-05-07 11:47 | 50.17120 | 25.64220 | 25693 ft | 426 kts | 261° |
| 2026-05-07 11:48 | 50.16689 | 25.59679 | 25171 ft | 421 kts | 261° |
| 2026-05-07 11:48 | 50.16264 | 25.55214 | 24652 ft | 417 kts | 261° |
| 2026-05-07 11:48 | 50.15841 | 25.50797 | 24119 ft | 413 kts | 261° |
| 2026-05-07 11:48 | 50.15415 | 25.46350 | 23565 ft | 409 kts | 261° |
| 2026-05-07 11:49 | 50.15001 | 25.42034 | 23007 ft | 405 kts | 261° |
| 2026-05-07 11:49 | 50.14586 | 25.37736 | 22437 ft | 401 kts | 261° |
| 2026-05-07 11:49 | 50.14169 | 25.33438 | 21860 ft | 398 kts | 260° |
| 2026-05-07 11:49 | 50.13753 | 25.29177 | 21309 ft | 394 kts | 259° |
| 2026-05-07 11:50 | 50.13332 | 25.24886 | 20738 ft | 391 kts | 259° |
| 2026-05-07 11:50 | 50.12913 | 25.20635 | 20160 ft | 388 kts | 259° |
| 2026-05-07 11:50 | 50.12503 | 25.16486 | 19615 ft | 385 kts | 259° |
| 2026-05-07 11:50 | 50.12088 | 25.12307 | 19047 ft | 382 kts | 259° |
| 2026-05-07 11:51 | 50.11675 | 25.08159 | 18503 ft | 379 kts | 258° |
| 2026-05-07 11:51 | 50.11267 | 25.04077 | 17967 ft | 376 kts | 258° |
| 2026-05-07 11:51 | 50.10857 | 25.00006 | 17415 ft | 374 kts | 258° |
| 2026-05-07 11:51 | 50.10455 | 24.96020 | 16878 ft | 371 kts | 258° |
| 2026-05-07 11:52 | 50.10055 | 24.92064 | 16360 ft | 369 kts | 258° |
| 2026-05-07 11:52 | 50.09650 | 24.88087 | 15804 ft | 367 kts | 258° |
| 2026-05-07 11:52 | 50.09253 | 24.84189 | 15265 ft | 365 kts | 258° |
| 2026-05-07 11:52 | 50.08855 | 24.80304 | 14732 ft | 363 kts | 258° |
| 2026-05-07 11:53 | 50.08460 | 24.76439 | 14197 ft | 361 kts | 258° |
| 2026-05-07 11:53 | 50.08062 | 24.72576 | 13655 ft | 359 kts | 258° |
| 2026-05-07 11:53 | 50.07673 | 24.68805 | 13112 ft | 357 kts | 258° |
| 2026-05-07 11:53 | 50.07276 | 24.64974 | 12571 ft | 354 kts | 258° |
| 2026-05-07 11:54 | 50.06887 | 24.61238 | 12031 ft | 352 kts | 258° |
| 2026-05-07 11:54 | 50.06499 | 24.57506 | 11504 ft | 349 kts | 258° |
| 2026-05-07 11:54 | 50.06115 | 24.53807 | 11066 ft | 342 kts | 258° |
| 2026-05-07 11:54 | 50.05740 | 24.50218 | 10708 ft | 332 kts | 258° |
| 2026-05-07 11:55 | 50.05377 | 24.46747 | 10479 ft | 320 kts | 258° |
| 2026-05-07 11:55 | 50.05023 | 24.43384 | 10357 ft | 305 kts | 258° |
| 2026-05-07 11:55 | 50.04689 | 24.40212 | 10244 ft | 290 kts | 258° |
| 2026-05-07 11:55 | 50.04369 | 24.37184 | 10139 ft | 276 kts | 257° |
| 2026-05-07 11:56 | 50.04065 | 24.34314 | 10049 ft | 264 kts | 256° |
| 2026-05-07 11:56 | 50.03765 | 24.31525 | 9763 ft | 263 kts | 256° |
| 2026-05-07 11:56 | 50.03464 | 24.28729 | 9382 ft | 262 kts | 256° |
| 2026-05-07 11:56 | 50.03164 | 24.25935 | 9038 ft | 259 kts | 256° |
| 2026-05-07 11:57 | 50.02870 | 24.23194 | 8721 ft | 256 kts | 256° |
| 2026-05-07 11:57 | 50.02578 | 24.20494 | 8386 ft | 253 kts | 256° |
| 2026-05-07 11:57 | 50.02284 | 24.17787 | 8036 ft | 252 kts | 256° |
| 2026-05-07 11:57 | 50.01997 | 24.15142 | 7690 ft | 254 kts | 256° |
| 2026-05-07 11:58 | 50.01696 | 24.12400 | 7316 ft | 260 kts | 256° |
| 2026-05-07 11:58 | 50.01393 | 24.09618 | 6938 ft | 260 kts | 256° |
| 2026-05-07 11:58 | 50.01093 | 24.06856 | 6563 ft | 259 kts | 256° |
| 2026-05-07 11:58 | 50.00795 | 24.04119 | 6189 ft | 258 kts | 256° |
| 2026-05-07 11:59 | 50.00494 | 24.01364 | 5812 ft | 257 kts | 256° |
| 2026-05-07 11:59 | 50.00195 | 23.98633 | 5436 ft | 256 kts | 256° |
| 2026-05-07 11:59 | 49.99896 | 23.95919 | 5061 ft | 255 kts | 256° |
| 2026-05-07 11:59 | 49.99598 | 23.93211 | 4685 ft | 254 kts | 256° |
| 2026-05-07 12:00 | 49.99304 | 23.90544 | 4343 ft | 251 kts | 256° |
| 2026-05-07 12:00 | 49.98949 | 23.87892 | 3971 ft | 247 kts | 247° |
| 2026-05-07 12:00 | 49.98103 | 23.85644 | 3601 ft | 234 kts | 227° |
| 2026-05-07 12:00 | 49.97028 | 23.83884 | 3334 ft | 224 kts | 224° |
| 2026-05-07 12:01 | 49.95937 | 23.82175 | 3079 ft | 219 kts | 224° |
| 2026-05-07 12:01 | 49.94859 | 23.80583 | 2823 ft | 214 kts | 213° |
| 2026-05-07 12:01 | 49.93479 | 23.79897 | 2568 ft | 212 kts | 181° |
| 2026-05-07 12:01 | 49.92030 | 23.80444 | 2501 ft | 218 kts | 161° |
| 2026-05-07 12:02 | 49.90681 | 23.81539 | 2496 ft | 220 kts | 149° |
| 2026-05-07 12:02 | 49.89478 | 23.83019 | 2493 ft | 224 kts | 141° |
| 2026-05-07 12:02 | 49.88342 | 23.84732 | 2494 ft | 225 kts | 140° |
| 2026-05-07 12:02 | 49.87266 | 23.86411 | 2478 ft | 209 kts | 141° |
| 2026-05-07 12:03 | 49.86270 | 23.87918 | 2375 ft | 189 kts | 140° |
| 2026-05-07 12:03 | 49.85366 | 23.89264 | 2093 ft | 173 kts | 140° |
| 2026-05-07 12:03 | 49.84535 | 23.90506 | 1827 ft | 157 kts | 141° |
| 2026-05-07 12:03 | 49.83791 | 23.91622 | 1611 ft | 145 kts | 141° |
| 2026-05-07 12:04 | 49.83065 | 23.92711 | 1421 ft | 145 kts | 140° |
| 2026-05-07 12:04 | 49.82355 | 23.93783 | 1230 ft | 143 kts | 140° |
| 2026-05-07 12:04 | 49.81648 | 23.94848 | 1077 ft | 137 kts | 141° |
| 2026-05-07 12:04 | 49.81058 | 23.95710 | 1049 ft | 80 kts | 137° |
| 2026-05-07 12:05 | 49.80924 | 23.95996 | 1045 ft | 0 kts | 20° |
| 2026-05-07 12:05 | 49.80928 | 23.95998 | 1045 ft | 2 kts | 20° |
| 2026-05-07 12:05 | 49.80960 | 23.96016 | 1046 ft | 9 kts | 20° |
| 2026-05-07 12:05 | 49.81030 | 23.96033 | 1045 ft | 10 kts | 355° |
| 2026-05-07 12:06 | 49.81101 | 23.95986 | 1045 ft | 11 kts | 320° |
| 2026-05-07 12:06 | 49.81138 | 23.95934 | 1045 ft | 0 kts | 317° |
| 2026-05-07 12:06 | 49.81178 | 23.95898 | 1046 ft | 9 kts | 357° |
| 2026-05-07 12:06 | 49.81229 | 23.95950 | 1046 ft | 9 kts | 45° |
| 2026-05-07 12:07 | 49.81235 | 23.95960 | 1046 ft | 0 kts | 45° |